Airfield :
LOGIN :

Register | Disclaimer

   EN    FR    IT 

 










Legend :    VFR   Marginal VFR   IFR   Intensive IFR   Very Intensive IFR
Visi :
Ceiling :
>= 8 km
>= 3000ft
5 to 8 km
1000 to 3000 ft
1500m to 5 km
500 to 1000 ft
800 to 1500m
200 to 500 ft
< 800m
< 200 ft
Symbols :   Thunderstorms  Fog  Heavy snow  Heavy precipitations  Wind > 20 kt
SIGMETs :     Misc.  Thunderstorms  Icing  Turbulence  Mountain Waves  Volcanic Ashes






- Airport Elevation : 37 ft
- IATA code : HLY


EGOV - RAF Valley

CURRENT METAR :
  • 250910Z 36015KT 8000 RA SCT006 OVC014 12/09 Q1017 TEMPO 7000 RA BKN009 RMK YLO1 TEMPO GRN

EXPIRED METARs :
  • 250850Z 36014KT 8000 RA BKN007 BKN014 12/09 Q1017 TEMPO 7000 RA RMK GRN TEMPO GRN
  • 250822Z 36014KT 7000 RA SCT007 BKN014 12/09 Q1017 TEMPO 4000 +SHRA RMK GRN TEMPO GRN
  • 250804Z 36016KT 7000 -RA BKN008 BKN016 12/09 Q1017 TEMPO 4000 RA RMK GRN TEMPO GRN
  • 250750Z 36016KT 7000 4000N -DZ SCT006 BKN010 12/09 Q1017 TEMPO BKN007 RMK YLO1 TEMPO GRN
  • 250721Z 01014KT 9999 7000NW -RA SCT008 BKN015 12/09 Q1017 TEMPO 4000 RA RMK GRN TEMPO GRN
  • 250650Z 33009KT 9999 -DZ SCT006 BKN011 12/09 Q1017 TEMPO 5000 RA BKN010 RMK YLO1 RMK GRN
  • 250620Z 30011KT 4500 -RADZ SCT004 BKN011 11/09 Q1017 RMK YLO2

TAF AMD TAF EGOV
Valid from the 25 at 07:00 until the 25 at 15:00 UTC


250756Z 2507/2515 36015KT 9999 -RA BKN010
TEMPO 2507/2515 5000 RA
PROB30
TEMPO 2507/2515 4000 +SHRA BKN005
BECMG 2509/2512 01018G28KT
BECMG 2514/2515 01012KT BKN040



MET'MAP, your aeronautical weather chart ! - Copyright ORBIFLY December 2007 - Disclaimer

ORBIFLY MET'MAP TEAM :

Programming & Development : Alexandra Zaïnal
Concept & original design : Baudouin d'Aumeries
Assistance for programming : Marc-Olivier Méhu
Technical & hardware support : Manuel Goepfert

Contact : metmap@orbifly.com




SOURCES & CREDITS :

   NOAA